Time;durP1;ratioP1;P1;durP2;ratioP2;P2;SDS_P1;SDS_P2;PMS_P1;PMS_P2;Temp;Humidity;BMP_temperature;BMP_pressure;BME280_temperature;BME280_humidity;BME280_pressure;Samples;Min_cycle;Max_cycle;Signal;HPM_P1;HPM_P2
2022/06/05 00:00:23;;;;;;;18.37;13.63;;;;;;;;;;6271672;28;20025;-79
2022/06/05 00:03:30;;;;;;;15.43;12.00;;;;;;;;;;6274548;28;20104;-77
2022/06/05 00:06:42;;;;;;;16.90;12.60;;;;;;;;;;6272945;28;20025;-78
2022/06/05 00:09:43;;;;;;;16.33;13.35;;;;;;;;;;6269792;28;20044;-79
2022/06/05 00:12:46;;;;;;;14.40;11.70;;;;;;;;;;6267914;28;20017;-78
2022/06/05 00:15:47;;;;;;;17.40;11.55;;;;;;;;;;6272497;28;20068;-78
2022/06/05 00:18:47;;;;;;;17.20;13.03;;;;;;;;;;6271152;28;20052;-79
2022/06/05 00:21:47;;;;;;;18.33;13.20;;;;;;;;;;6273030;28;20045;-78
2022/06/05 00:24:48;;;;;;;18.77;14.53;;;;;;;;;;6271608;28;20053;-78
2022/06/05 00:27:51;;;;;;;17.40;12.90;;;;;;;;;;6266031;28;20014;-78
2022/06/05 00:30:51;;;;;;;17.27;13.48;;;;;;;;;;6271338;28;20025;-79
2022/06/05 00:33:51;;;;;;;16.90;13.83;;;;;;;;;;6272678;28;20029;-78
2022/06/05 00:36:55;;;;;;;20.13;14.87;;;;;;;;;;6266996;28;20040;-78
2022/06/05 00:40:11;;;;;;;17.05;13.02;;;;;;;;;;6273138;28;20095;-78
2022/06/05 00:43:14;;;;;;;18.65;14.32;;;;;;;;;;6265115;28;20571;-78
2022/06/05 00:46:14;;;;;;;19.50;14.18;;;;;;;;;;6270249;28;20031;-78
2022/06/05 00:49:14;;;;;;;16.43;13.37;;;;;;;;;;6271282;28;20432;-79
2022/06/05 00:52:15;;;;;;;19.00;12.90;;;;;;;;;;6270830;28;20017;-79
2022/06/05 00:55:16;;;;;;;17.07;13.43;;;;;;;;;;6258532;28;20083;-79
2022/06/05 00:58:17;;;;;;;15.80;12.40;;;;;;;;;;6266749;28;20005;-79
2022/06/05 01:01:17;;;;;;;18.97;13.50;;;;;;;;;;6267706;28;20024;-79
2022/06/05 01:04:18;;;;;;;15.37;12.33;;;;;;;;;;6271124;28;20013;-78
2022/06/05 01:07:20;;;;;;;18.00;13.23;;;;;;;;;;6269377;28;20013;-78
2022/06/05 01:10:20;;;;;;;;;;;;;;;;;;6262561;28;20031;-79
2022/06/05 01:13:40;;;;;;;13.80;11.15;;;;;;;;;;6269339;28;19909;-78
2022/06/05 01:16:40;;;;;;;16.83;12.05;;;;;;;;;;6271824;28;20098;-78
2022/06/05 01:19:44;;;;;;;18.60;11.03;;;;;;;;;;6270706;28;20041;-79
2022/06/05 01:22:53;;;;;;;16.35;10.75;;;;;;;;;;6271999;28;20043;-78
2022/06/05 01:25:56;;;;;;;22.67;14.05;;;;;;;;;;6270653;28;20009;-78
2022/06/05 01:29:18;;;;;;;26.95;14.88;;;;;;;;;;6272090;28;20053;-79
2022/06/05 01:32:23;;;;;;;21.73;14.18;;;;;;;;;;6264708;28;20017;-78
2022/06/05 01:35:33;;;;;;;22.52;14.85;;;;;;;;;;6267804;28;20021;-79
2022/06/05 01:38:38;;;;;;;24.60;15.35;;;;;;;;;;6263308;28;20017;-78
2022/06/05 01:41:44;;;;;;;19.73;14.15;;;;;;;;;;6266956;28;20013;-78
2022/06/05 01:44:47;;;;;;;25.25;15.50;;;;;;;;;;6270376;28;20017;-79
2022/06/05 01:47:50;;;;;;;20.58;14.38;;;;;;;;;;6273095;28;20504;-79
2022/06/05 01:50:53;;;;;;;21.80;14.80;;;;;;;;;;6274189;28;20029;-78
2022/06/05 01:53:54;;;;;;;23.00;14.75;;;;;;;;;;6274111;28;20111;-79
2022/06/05 01:56:56;;;;;;;18.27;13.37;;;;;;;;;;6272891;28;20017;-78
2022/06/05 01:59:56;;;;;;;;;;;;;;;;;;6274900;28;20093;-78
2022/06/05 02:03:04;;;;;;;14.98;12.70;;;;;;;;;;6268343;28;19904;-79
2022/06/05 02:06:07;;;;;;;30.20;15.45;;;;;;;;;;6271038;28;20017;-78
2022/06/05 02:09:14;;;;;;;21.30;14.70;;;;;;;;;;6270870;28;20032;-78
2022/06/05 02:12:14;;;;;;;26.00;15.98;;;;;;;;;;6269626;28;20029;-78
2022/06/05 02:15:15;;;;;;;26.20;17.43;;;;;;;;;;6272228;28;20025;-79
2022/06/05 02:18:15;;;;;;;29.25;17.08;;;;;;;;;;6272198;28;20052;-78
2022/06/05 02:21:16;;;;;;;21.17;14.57;;;;;;;;;;6270443;28;20056;-78
2022/06/05 02:24:16;;;;;;;23.93;15.40;;;;;;;;;;6271746;28;20116;-78
2022/06/05 02:27:19;;;;;;;25.02;15.68;;;;;;;;;;6274401;28;20484;-78
2022/06/05 02:30:20;;;;;;;28.70;17.67;;;;;;;;;;6270830;28;20017;-78
2022/06/05 02:33:36;;;;;;;28.40;17.40;;;;;;;;;;6273603;28;20431;-78
2022/06/05 02:36:43;;;;;;;21.40;15.23;;;;;;;;;;6274806;28;20501;-78
2022/06/05 02:40:02;;;;;;;26.83;16.80;;;;;;;;;;6275207;28;20017;-78
2022/06/05 02:43:11;;;;;;;28.40;17.20;;;;;;;;;;6275255;28;20036;-78
2022/06/05 02:46:24;;;;;;;38.92;18.60;;;;;;;;;;6275249;28;20017;-78
2022/06/05 02:49:24;;;;;;;;;;;;;;;;;;6269606;28;20400;-78
2022/06/05 02:52:24;;;;;;;28.48;18.40;;;;;;;;;;6274680;28;20398;-78
2022/06/05 02:55:24;;;;;;;31.02;19.00;;;;;;;;;;6272392;28;20027;-78
2022/06/05 02:58:25;;;;;;;29.60;17.23;;;;;;;;;;6273037;28;20025;-79
2022/06/05 03:04:44;;;;;;;31.70;19.85;;;;;;;;;;6268294;28;20033;-78
2022/06/05 03:07:44;;;;;;;30.40;16.37;;;;;;;;;;6275434;28;20040;-78
2022/06/05 03:10:45;;;;;;;25.75;15.13;;;;;;;;;;6268096;28;20032;-78
2022/06/05 03:13:45;;;;;;;23.02;17.02;;;;;;;;;;6274473;28;20452;-77
2022/06/05 03:16:45;;;;;;;23.63;16.97;;;;;;;;;;6269539;28;20021;-77
2022/06/05 03:19:45;;;;;;;22.83;16.30;;;;;;;;;;6273288;28;20052;-78
2022/06/05 03:22:46;;;;;;;21.65;16.33;;;;;;;;;;6270226;28;20025;-78
2022/06/05 03:25:46;;;;;;;20.17;15.50;;;;;;;;;;6272066;28;20025;-77
2022/06/05 03:28:46;;;;;;;24.05;16.95;;;;;;;;;;6273436;28;20032;-77
2022/06/05 03:31:46;;;;;;;21.77;16.47;;;;;;;;;;6273509;28;20469;-77
2022/06/05 03:34:47;;;;;;;19.95;16.48;;;;;;;;;;6272733;28;20407;-77
2022/06/05 03:37:47;;;;;;;22.20;16.63;;;;;;;;;;6270603;28;20393;-78
2022/06/05 03:40:48;;;;;;;17.95;14.70;;;;;;;;;;6272741;28;20013;-77
2022/06/05 03:43:48;;;;;;;18.83;14.35;;;;;;;;;;6271865;28;20048;-77
2022/06/05 03:46:48;;;;;;;20.70;15.75;;;;;;;;;;6268605;28;20089;-77
2022/06/05 03:49:48;;;;;;;18.38;14.65;;;;;;;;;;6271989;28;20504;-78
2022/06/05 03:52:49;;;;;;;23.13;16.30;;;;;;;;;;6270444;28;20444;-78
2022/06/05 03:55:50;;;;;;;24.23;18.67;;;;;;;;;;6268526;28;20021;-77
2022/06/05 03:58:51;;;;;;;29.00;20.38;;;;;;;;;;6272678;28;20021;-77
2022/06/05 04:01:51;;;;;;;26.42;19.65;;;;;;;;;;6273774;28;20055;-78
2022/06/05 04:04:52;;;;;;;28.33;20.17;;;;;;;;;;6274759;28;20029;-78
2022/06/05 04:07:52;;;;;;;32.70;22.43;;;;;;;;;;6268738;28;20013;-78
2022/06/05 04:10:52;;;;;;;34.17;24.07;;;;;;;;;;6271856;28;20064;-78
2022/06/05 04:13:53;;;;;;;29.85;21.90;;;;;;;;;;6272954;28;20013;-78
2022/06/05 04:16:53;;;;;;;24.43;20.07;;;;;;;;;;6268707;28;20021;-79
2022/06/05 04:19:53;;;;;;;31.40;22.23;;;;;;;;;;6271661;28;20386;-78
2022/06/05 04:22:53;;;;;;;31.67;22.40;;;;;;;;;;6271751;28;20424;-79
2022/06/05 04:25:54;;;;;;;31.05;23.50;;;;;;;;;;6272396;28;20031;-79
2022/06/05 04:28:54;;;;;;;31.20;21.87;;;;;;;;;;6272567;28;20027;-79
2022/06/05 04:31:54;;;;;;;29.83;22.08;;;;;;;;;;6274687;28;20122;-79
2022/06/05 04:34:54;;;;;;;25.63;19.43;;;;;;;;;;6270597;28;20021;-79
2022/06/05 04:37:55;;;;;;;26.63;19.30;;;;;;;;;;6270099;28;20021;-79
2022/06/05 04:40:55;;;;;;;30.77;20.43;;;;;;;;;;6273929;28;20009;-79
2022/06/05 04:43:56;;;;;;;25.07;18.60;;;;;;;;;;6267346;28;20465;-79
2022/06/05 04:46:56;;;;;;;27.17;18.77;;;;;;;;;;6273722;28;20016;-79
2022/06/05 04:49:56;;;;;;;28.90;17.80;;;;;;;;;;6273362;28;20427;-79
2022/06/05 04:52:56;;;;;;;22.43;16.27;;;;;;;;;;6271852;28;20460;-79
2022/06/05 04:55:57;;;;;;;23.03;14.97;;;;;;;;;;6271997;28;20044;-79
2022/06/05 04:58:57;;;;;;;20.83;13.73;;;;;;;;;;6272527;28;20031;-78
2022/06/05 05:01:57;;;;;;;20.03;14.30;;;;;;;;;;6273261;28;20013;-78
2022/06/05 05:04:58;;;;;;;21.83;14.27;;;;;;;;;;6274710;28;20016;-78
2022/06/05 05:07:58;;;;;;;24.90;16.03;;;;;;;;;;6275115;28;20013;-79
2022/06/05 05:10:58;;;;;;;26.17;17.03;;;;;;;;;;6271890;28;20021;-78
2022/06/05 05:13:59;;;;;;;22.97;17.07;;;;;;;;;;6271523;28;20028;-78
2022/06/05 05:16:59;;;;;;;23.23;16.73;;;;;;;;;;6265454;28;20032;-79
2022/06/05 05:20:00;;;;;;;25.93;19.30;;;;;;;;;;6272327;28;20048;-79
2022/06/05 05:23:00;;;;;;;24.67;18.37;;;;;;;;;;6271700;28;20013;-79
2022/06/05 05:26:06;;;;;;;24.87;17.50;;;;;;;;;;6266556;28;20025;-78
2022/06/05 05:29:07;;;;;;;21.95;15.45;;;;;;;;;;6270573;28;20043;-78
2022/06/05 05:32:08;;;;;;;25.93;18.50;;;;;;;;;;6269496;28;20021;-78
2022/06/05 05:35:09;;;;;;;25.90;16.85;;;;;;;;;;6267032;28;20461;-79
2022/06/05 05:38:09;;;;;;;22.92;16.73;;;;;;;;;;6266186;28;20112;-78
2022/06/05 05:44:46;;;;;;;16.15;12.02;;;;;;;;;;6263325;28;20547;-78
2022/06/05 05:47:46;;;;;;;15.68;12.13;;;;;;;;;;6265678;28;20484;-79
2022/06/05 05:50:47;;;;;;;19.00;15.40;;;;;;;;;;6269206;28;20031;-76
2022/06/05 05:53:47;;;;;;;19.83;13.47;;;;;;;;;;6267386;28;20487;-78
2022/06/05 05:56:47;;;;;;;14.77;10.77;;;;;;;;;;6270547;28;20035;-78
2022/06/05 05:59:48;;;;;;;12.03;9.80;;;;;;;;;;6268848;28;20020;-78
2022/06/05 06:02:48;;;;;;;13.20;9.50;;;;;;;;;;6262542;28;20017;-79
2022/06/05 06:05:48;;;;;;;11.00;8.47;;;;;;;;;;6271023;28;20016;-79
2022/06/05 06:08:49;;;;;;;11.50;8.63;;;;;;;;;;6269472;28;20119;-79
2022/06/05 06:11:49;;;;;;;16.57;10.20;;;;;;;;;;6273867;28;20083;-78
2022/06/05 06:14:49;;;;;;;;;;;;;;;;;;6272445;28;20024;-77
2022/06/05 06:17:49;;;;;;;14.07;9.32;;;;;;;;;;6264312;28;20380;-79
2022/06/05 06:20:49;;;;;;;;;;;;;;;;;;6266341;28;20040;-78
2022/06/05 06:23:50;;;;;;;11.95;9.57;;;;;;;;;;6267551;28;19991;-78
2022/06/05 06:26:50;;;;;;;;;;;;;;;;;;6270957;28;20112;-78
2022/06/05 06:29:50;;;;;;;15.55;9.10;;;;;;;;;;6276503;28;20013;-77
2022/06/05 06:32:51;;;;;;;9.97;8.67;;;;;;;;;;6262921;28;20037;-78
2022/06/05 06:35:51;;;;;;;10.60;7.77;;;;;;;;;;6271052;28;20036;-78
2022/06/05 06:38:51;;;;;;;10.93;8.35;;;;;;;;;;6270094;28;20644;-77
2022/06/05 06:41:51;;;;;;;13.20;9.23;;;;;;;;;;6268770;28;20036;-78
2022/06/05 06:44:52;;;;;;;9.83;7.93;;;;;;;;;;6258411;28;20052;-78
2022/06/05 06:47:52;;;;;;;12.60;8.67;;;;;;;;;;6266608;28;20032;-77
2022/06/05 06:50:56;;;;;;;8.07;7.23;;;;;;;;;;6267463;28;20255;-78
2022/06/05 06:53:56;;;;;;;8.38;7.35;;;;;;;;;;6261979;28;20495;-76
2022/06/05 06:56:57;;;;;;;16.90;7.07;;;;;;;;;;6268044;28;20029;-76
2022/06/05 06:59:57;;;;;;;8.65;6.63;;;;;;;;;;6267377;28;20107;-76
2022/06/05 07:02:57;;;;;;;8.40;6.57;;;;;;;;;;6254389;28;20025;-77
2022/06/05 07:05:57;;;;;;;8.13;6.13;;;;;;;;;;6262024;28;20021;-77
2022/06/05 07:08:58;;;;;;;9.93;6.70;;;;;;;;;;6254751;28;20362;-77
2022/06/05 07:11:58;;;;;;;7.45;6.10;;;;;;;;;;6266336;28;20276;-78
2022/06/05 07:14:58;;;;;;;7.23;5.77;;;;;;;;;;6278036;28;20045;-76
2022/06/05 07:18:02;;;;;;;10.43;6.60;;;;;;;;;;6280663;28;20052;-77
2022/06/05 07:21:06;;;;;;;8.65;5.78;;;;;;;;;;6282018;28;20049;-77
2022/06/05 07:24:06;;;;;;;8.20;5.85;;;;;;;;;;6276894;28;20449;-77
2022/06/05 07:27:06;;;;;;;15.23;6.23;;;;;;;;;;6284517;28;20016;-77
2022/06/05 07:30:07;;;;;;;7.20;5.67;;;;;;;;;;6279485;28;20385;-77
2022/06/05 07:33:08;;;;;;;9.23;5.70;;;;;;;;;;6293432;28;20283;-78
2022/06/05 07:36:09;;;;;;;5.57;5.00;;;;;;;;;;6274187;28;20025;-77
2022/06/05 07:39:10;;;;;;;9.90;4.50;;;;;;;;;;6270197;28;20026;-76
2022/06/05 07:42:10;;;;;;;6.63;5.40;;;;;;;;;;6264212;28;20025;-78
2022/06/05 07:45:14;;;;;;;5.72;4.90;;;;;;;;;;6262474;28;20029;-78
2022/06/05 07:48:14;;;;;;;6.57;4.60;;;;;;;;;;6270493;28;20017;-77
2022/06/05 07:54:36;;;;;;;9.13;5.10;;;;;;;;;;6270239;28;20025;-78
2022/06/05 07:57:36;;;;;;;8.57;4.93;;;;;;;;;;6263980;28;20032;-78
2022/06/05 08:00:37;;;;;;;6.88;5.10;;;;;;;;;;6252473;28;20024;-78
2022/06/05 08:03:37;;;;;;;11.20;5.10;;;;;;;;;;6265370;28;20530;-76
2022/06/05 08:06:37;;;;;;;7.23;4.30;;;;;;;;;;6260254;28;20377;-77
2022/06/05 08:09:38;;;;;;;4.87;4.17;;;;;;;;;;6266762;28;20037;-77
2022/06/05 08:12:39;;;;;;;6.80;5.03;;;;;;;;;;6270833;28;20017;-78
2022/06/05 08:15:42;;;;;;;5.87;4.30;;;;;;;;;;6264320;28;20672;-77
2022/06/05 08:18:42;;;;;;;5.53;4.43;;;;;;;;;;6267862;28;20766;-76
2022/06/05 08:21:43;;;;;;;7.70;4.40;;;;;;;;;;6273058;28;20114;-77
2022/06/05 08:24:43;;;;;;;5.43;4.20;;;;;;;;;;6272988;28;20646;-77
2022/06/05 08:27:45;;;;;;;5.05;4.05;;;;;;;;;;6276612;28;20017;-78
2022/06/05 08:30:46;;;;;;;5.30;3.47;;;;;;;;;;6269425;28;20028;-77
2022/06/05 08:33:46;;;;;;;5.53;3.50;;;;;;;;;;6289564;28;20033;-77
2022/06/05 08:36:47;;;;;;;4.53;3.80;;;;;;;;;;6274794;28;20017;-77
2022/06/05 08:43:18;;;;;;;6.57;4.57;;;;;;;;;;6260219;28;20259;-77
2022/06/05 08:46:24;;;;;;;3.67;3.33;;;;;;;;;;6255306;28;20116;-77
2022/06/05 08:50:03;;;;;;;6.97;3.97;;;;;;;;;;6261091;28;20025;-77
2022/06/05 08:53:22;;;;;;;6.50;4.15;;;;;;;;;;6223407;28;20026;-77
2022/06/05 08:56:27;;;;;;;3.97;3.33;;;;;;;;;;6240425;28;20068;-78
2022/06/05 08:59:29;;;;;;;6.38;3.60;;;;;;;;;;6269144;28;20495;-77
2022/06/05 09:02:45;;;;;;;4.55;3.35;;;;;;;;;;6262902;28;20553;-78
2022/06/05 09:05:47;;;;;;;3.80;3.38;;;;;;;;;;6266283;28;20021;-77
2022/06/05 09:08:53;;;;;;;3.95;3.50;;;;;;;;;;6269418;28;20099;-76
2022/06/05 09:12:00;;;;;;;6.10;3.10;;;;;;;;;;6271718;28;20016;-76
2022/06/05 09:15:04;;;;;;;4.45;3.30;;;;;;;;;;6270213;28;20025;-77
2022/06/05 09:18:10;;;;;;;3.67;2.90;;;;;;;;;;6267077;28;20027;-77
2022/06/05 09:21:21;;;;;;;5.40;3.90;;;;;;;;;;6267889;28;20106;-77
2022/06/05 09:24:30;;;;;;;8.55;3.67;;;;;;;;;;6270174;28;20028;-77
2022/06/05 09:27:40;;;;;;;3.47;3.08;;;;;;;;;;6263651;28;20108;-77
2022/06/05 09:30:40;;;;;;;7.25;3.53;;;;;;;;;;6268290;28;20024;-76
2022/06/05 09:33:41;;;;;;;5.73;3.53;;;;;;;;;;6262419;28;20049;-76
2022/06/05 09:36:43;;;;;;;5.75;3.50;;;;;;;;;;6260294;28;20034;-76
2022/06/05 09:39:54;;;;;;;3.78;3.13;;;;;;;;;;6269722;28;20040;-77
2022/06/05 09:43:13;;;;;;;4.70;3.53;;;;;;;;;;6269402;28;20017;-77
2022/06/05 09:46:20;;;;;;;4.88;3.05;;;;;;;;;;6272190;28;20025;-76
2022/06/05 09:49:35;;;;;;;5.18;3.55;;;;;;;;;;6266873;28;20055;-77
2022/06/05 09:52:36;;;;;;;3.13;2.83;;;;;;;;;;6268535;28;20021;-78
2022/06/05 09:55:36;;;;;;;3.13;2.60;;;;;;;;;;6269213;28;20033;-77
2022/06/05 09:58:51;;;;;;;5.40;3.20;;;;;;;;;;6260099;28;20084;-78
2022/06/05 10:01:54;;;;;;;6.60;3.90;;;;;;;;;;6268155;28;20024;-77
2022/06/05 10:04:54;;;;;;;5.03;3.20;;;;;;;;;;6269095;28;20017;-77
2022/06/05 10:08:04;;;;;;;5.47;2.65;;;;;;;;;;6271921;28;20025;-77
2022/06/05 10:11:17;;;;;;;7.22;3.40;;;;;;;;;;6271322;28;20029;-77
2022/06/05 10:14:20;;;;;;;5.05;3.28;;;;;;;;;;6268148;28;20029;-76
2022/06/05 10:17:40;;;;;;;10.95;3.38;;;;;;;;;;6266354;28;20399;-76
2022/06/05 10:20:46;;;;;;;5.43;3.30;;;;;;;;;;6273363;28;20053;-76
2022/06/05 10:23:51;;;;;;;4.15;2.65;;;;;;;;;;6271503;28;20021;-77
2022/06/05 10:26:54;;;;;;;6.05;3.88;;;;;;;;;;6272382;28;20653;-77
2022/06/05 10:29:55;;;;;;;3.55;2.90;;;;;;;;;;6270974;28;20397;-77
2022/06/05 10:32:56;;;;;;;5.53;3.65;;;;;;;;;;6273807;28;20384;-76
2022/06/05 10:35:56;;;;;;;;;;;;;;;;;;6270129;28;20063;-77
2022/06/05 10:39:32;;;;;;;6.28;3.58;;;;;;;;;;6269431;28;19905;-76
2022/06/05 10:42:33;;;;;;;4.00;3.40;;;;;;;;;;6219957;28;20106;-76
2022/06/05 10:45:39;;;;;;;5.13;3.67;;;;;;;;;;6277382;28;20473;-76
2022/06/05 10:48:39;;;;;;;4.53;3.20;;;;;;;;;;6277365;28;20020;-75
2022/06/05 10:51:43;;;;;;;3.60;2.87;;;;;;;;;;6274946;28;20025;-76
2022/06/05 10:54:51;;;;;;;4.90;3.20;;;;;;;;;;6273287;28;20437;-76
2022/06/05 10:57:55;;;;;;;6.78;3.22;;;;;;;;;;6277451;28;20021;-76
2022/06/05 11:00:56;;;;;;;5.90;3.45;;;;;;;;;;6276282;28;20377;-76
2022/06/05 11:04:05;;;;;;;3.72;2.80;;;;;;;;;;6276860;28;20017;-75
2022/06/05 11:07:24;;;;;;;3.80;3.25;;;;;;;;;;6271594;28;20017;-76
2022/06/05 11:13:39;;;;;;;3.15;2.53;;;;;;;;;;6274159;28;20020;-76
2022/06/05 11:13:50;;;;;;;6.60;3.67;;;;;;;;;;6273530;28;20041;-75
2022/06/05 11:16:53;;;;;;;4.63;3.58;;;;;;;;;;6267951;28;20025;-76
2022/06/05 11:20:09;;;;;;;4.95;3.95;;;;;;;;;;6273661;28;20532;-76
2022/06/05 11:23:17;;;;;;;5.05;3.28;;;;;;;;;;6270322;28;20027;-75
2022/06/05 11:26:38;;;;;;;4.82;3.35;;;;;;;;;;6270717;28;20107;-76
2022/06/05 11:29:45;;;;;;;3.72;3.03;;;;;;;;;;6242538;28;20044;-76
2022/06/05 11:32:54;;;;;;;3.15;2.72;;;;;;;;;;6267922;28;20477;-76
2022/06/05 11:36:13;;;;;;;3.25;2.95;;;;;;;;;;6275301;28;20024;-77
2022/06/05 11:39:19;;;;;;;4.35;2.85;;;;;;;;;;6265185;28;20030;-77
2022/06/05 11:42:24;;;;;;;5.80;3.10;;;;;;;;;;6275721;28;20057;-77
2022/06/05 11:45:36;;;;;;;6.20;3.17;;;;;;;;;;6277052;28;20358;-77
2022/06/05 11:48:55;;;;;;;4.95;2.92;;;;;;;;;;6269241;28;20017;-76
2022/06/05 11:51:59;;;;;;;3.38;2.75;;;;;;;;;;6263625;28;20072;-78
2022/06/05 11:55:05;;;;;;;4.50;3.30;;;;;;;;;;6271352;28;20021;-77
2022/06/05 11:58:12;;;;;;;4.82;3.15;;;;;;;;;;6275217;28;20031;-77
2022/06/05 12:01:16;;;;;;;3.85;3.50;;;;;;;;;;6273429;28;20017;-77
2022/06/05 12:04:16;;;;;;;3.25;2.95;;;;;;;;;;6274375;28;20017;-76
2022/06/05 12:07:17;;;;;;;3.80;2.80;;;;;;;;;;6273934;28;20380;-77
2022/06/05 12:10:21;;;;;;;4.40;2.90;;;;;;;;;;6272602;28;20028;-77
2022/06/05 12:13:24;;;;;;;3.53;2.95;;;;;;;;;;6270260;28;20044;-76
2022/06/05 12:16:50;;;;;;;7.78;4.45;;;;;;;;;;6273504;28;20016;-77
2022/06/05 12:20:09;;;;;;;4.35;3.60;;;;;;;;;;6261916;28;20398;-77
2022/06/05 12:23:28;;;;;;;3.35;3.05;;;;;;;;;;6262219;28;20013;-77
2022/06/05 12:26:37;;;;;;;6.22;3.88;;;;;;;;;;6273101;28;20409;-76
2022/06/05 12:29:38;;;;;;;11.68;3.40;;;;;;;;;;6283044;28;20047;-77
2022/06/05 12:32:38;;;;;;;;;;;;;;;;;;6274634;28;20029;-76
2022/06/05 12:35:40;;;;;;;4.13;3.38;;;;;;;;;;6272481;28;19912;-77
2022/06/05 12:38:57;;;;;;;4.03;2.78;;;;;;;;;;6271424;28;20033;-77
2022/06/05 12:42:12;;;;;;;3.88;3.00;;;;;;;;;;6273760;28;20117;-76
2022/06/05 12:45:17;;;;;;;4.95;3.30;;;;;;;;;;6273097;28;20009;-76
2022/06/05 12:48:24;;;;;;;4.90;3.33;;;;;;;;;;6275666;28;20036;-75
2022/06/05 12:51:26;;;;;;;4.55;3.03;;;;;;;;;;6270813;28;20009;-76
2022/06/05 12:54:35;;;;;;;8.00;3.00;;;;;;;;;;6265631;28;20025;-75
2022/06/05 12:57:48;;;;;;;3.28;2.83;;;;;;;;;;6268425;28;20116;-76
2022/06/05 13:00:53;;;;;;;3.20;2.58;;;;;;;;;;6276601;28;20017;-75
2022/06/05 13:04:02;;;;;;;6.32;3.08;;;;;;;;;;6272404;28;20706;-75
2022/06/05 13:07:05;;;;;;;6.50;3.95;;;;;;;;;;6273308;28;20204;-75
2022/06/05 13:10:24;;;;;;;3.55;3.20;;;;;;;;;;6271866;28;20025;-75
2022/06/05 13:13:40;;;;;;;4.80;3.13;;;;;;;;;;6268373;28;20024;-75
2022/06/05 13:16:40;;;;;;;6.80;4.82;;;;;;;;;;6265742;28;20037;-75
2022/06/05 13:19:47;;;;;;;7.50;3.83;;;;;;;;;;6273154;28;20041;-76
2022/06/05 13:22:51;;;;;;;4.13;3.45;;;;;;;;;;6271806;28;20020;-76
2022/06/05 13:26:11;;;;;;;5.70;3.40;;;;;;;;;;6270607;28;20554;-77
2022/06/05 13:29:30;;;;;;;4.65;2.80;;;;;;;;;;6270734;28;20047;-77
2022/06/05 13:32:31;;;;;;;4.50;2.90;;;;;;;;;;6271041;28;20028;-77
2022/06/05 13:35:31;;;;;;;3.83;2.90;;;;;;;;;;6270285;28;20718;-77
2022/06/05 13:38:36;;;;;;;5.07;3.47;;;;;;;;;;6271364;28;20287;-77
2022/06/05 13:41:54;;;;;;;7.10;2.80;;;;;;;;;;6271970;28;20025;-77
2022/06/05 13:44:57;;;;;;;6.57;3.00;;;;;;;;;;6265087;28;20491;-77
2022/06/05 13:48:08;;;;;;;5.38;2.65;;;;;;;;;;6273637;28;20063;-77
2022/06/05 13:51:22;;;;;;;3.20;2.90;;;;;;;;;;6271285;28;20025;-76
2022/06/05 13:54:34;;;;;;;4.45;2.72;;;;;;;;;;6278182;28;20025;-76
2022/06/05 13:57:41;;;;;;;5.05;2.22;;;;;;;;;;6275670;28;20029;-76
2022/06/05 14:00:54;;;;;;;4.22;2.40;;;;;;;;;;6270314;28;20160;-77
2022/06/05 14:03:57;;;;;;;3.13;2.50;;;;;;;;;;6272384;28;20028;-77
2022/06/05 14:07:03;;;;;;;4.70;3.00;;;;;;;;;;6270335;28;20087;-77
2022/06/05 14:10:06;;;;;;;4.53;2.92;;;;;;;;;;6270622;28;20032;-77
2022/06/05 14:13:14;;;;;;;2.92;2.63;;;;;;;;;;6268213;28;20048;-77
2022/06/05 14:16:14;;;;;;;4.82;2.40;;;;;;;;;;6270957;28;20024;-77
2022/06/05 14:19:23;;;;;;;4.35;2.53;;;;;;;;;;6267773;28;20100;-77
2022/06/05 14:22:25;;;;;;;2.92;2.53;;;;;;;;;;6266887;28;20736;-77
2022/06/05 14:25:27;;;;;;;3.03;2.45;;;;;;;;;;6271574;28;20012;-77
2022/06/05 14:28:38;;;;;;;5.05;2.72;;;;;;;;;;6277837;28;20041;-77
2022/06/05 14:31:38;;;;;;;2.38;2.17;;;;;;;;;;6269437;28;20154;-77
2022/06/05 14:34:40;;;;;;;2.93;2.60;;;;;;;;;;6273868;28;20025;-77
2022/06/05 14:37:46;;;;;;;3.17;2.85;;;;;;;;;;6273207;28;20267;-77
2022/06/05 14:40:54;;;;;;;3.65;2.65;;;;;;;;;;6274327;28;20083;-77
2022/06/05 14:44:00;;;;;;;3.28;2.55;;;;;;;;;;6273025;28;20396;-77
2022/06/05 14:47:05;;;;;;;5.40;2.95;;;;;;;;;;6275066;28;20537;-76
2022/06/05 14:50:08;;;;;;;4.70;2.60;;;;;;;;;;6274765;28;20370;-77
2022/06/05 14:53:22;;;;;;;5.00;3.10;;;;;;;;;;6270986;28;20028;-77
2022/06/05 15:00:16;;;;;;;5.68;2.88;;;;;;;;;;6267541;28;20033;-77
2022/06/05 15:03:25;;;;;;;4.72;2.75;;;;;;;;;;6257752;28;20033;-77
2022/06/05 15:06:32;;;;;;;4.25;3.40;;;;;;;;;;6274894;28;20017;-77
2022/06/05 15:09:43;;;;;;;5.00;2.92;;;;;;;;;;6271280;28;20032;-77
2022/06/05 15:12:48;;;;;;;3.28;2.53;;;;;;;;;;6270559;28;20029;-77
2022/06/05 15:15:52;;;;;;;2.95;2.65;;;;;;;;;;6275730;28;20094;-77
2022/06/05 15:18:52;;;;;;;4.05;3.08;;;;;;;;;;6273079;28;20025;-76
2022/06/05 15:21:52;;;;;;;;;;;;;;;;;;6272652;28;20091;-77
2022/06/05 15:24:58;;;;;;;4.57;2.85;;;;;;;;;;6274708;28;20299;-77
2022/06/05 15:28:11;;;;;;;4.15;2.75;;;;;;;;;;6273542;28;20384;-77
2022/06/05 15:31:19;;;;;;;3.40;2.47;;;;;;;;;;6274181;28;20374;-77
2022/06/05 15:34:25;;;;;;;3.20;2.88;;;;;;;;;;6273698;28;20036;-77
2022/06/05 15:37:41;;;;;;;6.03;2.75;;;;;;;;;;6272783;28;20029;-77
2022/06/05 15:41:00;;;;;;;5.07;3.00;;;;;;;;;;6263992;28;20060;-77
2022/06/05 15:44:13;;;;;;;4.32;2.88;;;;;;;;;;6275185;28;20048;-76
2022/06/05 15:47:16;;;;;;;3.95;2.70;;;;;;;;;;6258174;28;20113;-76
2022/06/05 15:50:26;;;;;;;3.25;2.95;;;;;;;;;;6260579;28;20108;-76
2022/06/05 15:53:44;;;;;;;4.07;2.97;;;;;;;;;;6262857;28;20029;-77
2022/06/05 15:56:44;;;;;;;6.80;2.75;;;;;;;;;;6257107;28;20028;-76
2022/06/05 15:59:50;;;;;;;3.43;3.00;;;;;;;;;;6261638;28;20021;-77
2022/06/05 16:02:51;;;;;;;4.40;2.70;;;;;;;;;;6264209;28;20462;-75
2022/06/05 16:05:53;;;;;;;3.10;2.38;;;;;;;;;;6261866;28;20052;-76
2022/06/05 16:08:53;;;;;;;4.00;2.70;;;;;;;;;;6260187;28;20535;-75
2022/06/05 16:11:57;;;;;;;2.90;2.67;;;;;;;;;;6261560;28;20044;-75
2022/06/05 16:14:57;;;;;;;5.63;2.83;;;;;;;;;;6264171;28;20025;-75
2022/06/05 16:18:01;;;;;;;6.13;3.10;;;;;;;;;;6260794;28;20025;-75
2022/06/05 16:21:07;;;;;;;3.80;2.63;;;;;;;;;;6260849;28;20049;-75
2022/06/05 16:24:11;;;;;;;4.00;3.30;;;;;;;;;;6265658;28;20457;-75
2022/06/05 16:27:16;;;;;;;4.25;3.10;;;;;;;;;;6260239;28;20110;-76
2022/06/05 16:30:39;;;;;;;4.53;2.92;;;;;;;;;;6260744;28;20404;-75
2022/06/05 16:33:46;;;;;;;3.42;2.60;;;;;;;;;;6263092;28;20434;-75
2022/06/05 16:40:20;;;;;;;5.93;3.00;;;;;;;;;;6260962;28;20041;-76
2022/06/05 16:43:21;;;;;;;6.43;3.30;;;;;;;;;;6266812;28;20046;-75
2022/06/05 16:46:32;;;;;;;6.03;2.97;;;;;;;;;;6261694;28;20029;-75
2022/06/05 16:49:43;;;;;;;2.85;2.55;;;;;;;;;;6259846;28;20035;-75
2022/06/05 16:52:45;;;;;;;6.40;2.92;;;;;;;;;;6263785;28;20028;-76
2022/06/05 16:55:57;;;;;;;6.20;3.08;;;;;;;;;;6265869;28;21093;-75
2022/06/05 16:59:02;;;;;;;3.97;2.67;;;;;;;;;;6268411;28;20421;-76
2022/06/05 17:02:02;;;;;;;4.60;2.97;;;;;;;;;;6264380;28;20111;-75
2022/06/05 17:05:16;;;;;;;3.33;3.00;;;;;;;;;;6272379;28;20027;-76
2022/06/05 17:08:42;;;;;;;5.95;2.92;;;;;;;;;;6272869;28;20526;-76
2022/06/05 17:11:44;;;;;;;4.65;3.17;;;;;;;;;;6275120;28;20031;-77
2022/06/05 17:14:44;;;;;;;4.93;3.05;;;;;;;;;;6269170;28;20044;-75
2022/06/05 17:17:45;;;;;;;5.17;2.97;;;;;;;;;;6270731;28;20752;-76
2022/06/05 17:20:56;;;;;;;4.50;3.07;;;;;;;;;;6275370;28;20041;-75
2022/06/05 17:24:15;;;;;;;6.22;3.28;;;;;;;;;;6267424;28;20025;-76
2022/06/05 17:27:15;;;;;;;7.45;3.47;;;;;;;;;;6270983;28;20012;-76
2022/06/05 17:30:15;;;;;;;4.07;3.30;;;;;;;;;;6261068;28;20087;-76
2022/06/05 17:33:16;;;;;;;3.20;2.90;;;;;;;;;;6272475;28;20096;-75
2022/06/05 17:36:38;;;;;;;5.30;3.83;;;;;;;;;;6264775;28;20081;-75
2022/06/05 17:39:41;;;;;;;4.75;3.33;;;;;;;;;;6271618;28;20029;-76
2022/06/05 17:42:41;;;;;;;5.15;3.30;;;;;;;;;;6269732;28;20017;-76
2022/06/05 17:45:41;;;;;;;4.57;3.20;;;;;;;;;;6267582;28;20028;-75
2022/06/05 17:48:44;;;;;;;5.17;3.47;;;;;;;;;;6275263;28;20033;-76
2022/06/05 17:51:51;;;;;;;5.13;3.25;;;;;;;;;;6275326;28;20019;-75
2022/06/05 17:54:53;;;;;;;5.13;3.85;;;;;;;;;;6269928;28;20021;-75
2022/06/05 17:57:56;;;;;;;3.92;3.03;;;;;;;;;;6275461;28;20077;-75
2022/06/05 18:01:06;;;;;;;3.72;3.17;;;;;;;;;;6260077;28;20073;-75
2022/06/05 18:04:17;;;;;;;4.20;3.60;;;;;;;;;;6271042;28;20025;-75
2022/06/05 18:07:25;;;;;;;4.03;3.38;;;;;;;;;;6279865;28;20009;-75
2022/06/05 18:10:27;;;;;;;4.68;3.10;;;;;;;;;;6277603;28;20025;-76
2022/06/05 18:13:33;;;;;;;7.90;4.00;;;;;;;;;;6281373;28;20055;-76
2022/06/05 18:16:35;;;;;;;4.88;3.80;;;;;;;;;;6265373;28;20033;-75
2022/06/05 18:19:39;;;;;;;5.20;3.60;;;;;;;;;;6266638;28;20096;-75
2022/06/05 18:22:42;;;;;;;5.50;3.58;;;;;;;;;;6269348;28;20021;-75
2022/06/05 18:25:47;;;;;;;4.68;3.50;;;;;;;;;;6267065;28;20048;-75
2022/06/05 18:28:48;;;;;;;3.25;2.95;;;;;;;;;;6271728;28;20036;-75
2022/06/05 18:31:50;;;;;;;5.18;3.35;;;;;;;;;;6267683;28;20043;-75
2022/06/05 18:34:58;;;;;;;5.68;3.70;;;;;;;;;;6266700;28;20071;-75
2022/06/05 18:38:16;;;;;;;7.45;3.88;;;;;;;;;;6252797;28;20024;-75